createdAt,value
2023-05-19T00:02:27.434Z,44.52
2023-05-19T00:07:32.511Z,43.92
2023-05-19T00:12:35.482Z,43.32
2023-05-19T00:17:38.442Z,42.77
2023-05-19T00:22:40.468Z,42.26
2023-05-19T00:27:42.394Z,42.48
2023-05-19T00:32:44.306Z,43.66
2023-05-19T00:37:46.713Z,43.12
2023-05-19T00:42:48.560Z,42.69
2023-05-19T00:47:50.383Z,42.57
2023-05-19T00:52:52.252Z,42.18
2023-05-19T00:57:56.295Z,41.69
2023-05-19T01:02:58.326Z,41.53
2023-05-19T01:08:00.339Z,41.27
2023-05-19T01:13:05.700Z,41.24
2023-05-19T01:18:18.825Z,43.64
2023-05-19T01:23:38.667Z,46.37
2023-05-19T01:28:58.465Z,47.57
2023-05-19T01:34:01.587Z,49.12
2023-05-19T01:39:04.180Z,46.31
2023-05-19T01:44:06.379Z,45.26
2023-05-19T01:49:08.380Z,44.38
2023-05-19T01:54:10.441Z,43.35
2023-05-19T01:59:26.955Z,44.12
2023-05-19T02:04:44.038Z,48.35
2023-05-19T02:10:21.183Z,48.32
2023-05-19T02:15:34.873Z,51.42
2023-05-19T02:20:37.120Z,50.78
2023-05-19T02:25:38.934Z,51.22
2023-05-19T02:30:40.995Z,49.12
2023-05-19T02:35:42.874Z,46.90
2023-05-19T02:40:44.830Z,47.27
2023-05-19T02:45:46.741Z,46.10
2023-05-19T02:50:48.599Z,45.17
2023-05-19T02:55:50.417Z,44.38
2023-05-19T03:00:52.250Z,43.81
2023-05-19T03:05:54.189Z,42.94
2023-05-19T03:10:55.971Z,45.21
2023-05-19T03:15:59.219Z,43.67
2023-05-19T03:21:01.163Z,43.02
2023-05-19T03:26:03.065Z,42.76
2023-05-19T03:31:05.886Z,42.27
2023-05-19T03:36:12.684Z,42.12
2023-05-19T03:41:14.952Z,42.89
2023-05-19T03:46:16.872Z,42.52
2023-05-19T03:51:44.316Z,41.69
2023-05-19T03:56:58.431Z,41.56
2023-05-19T04:02:00.339Z,41.19
2023-05-19T04:07:02.425Z,40.95
2023-05-19T04:12:04.470Z,41.80
2023-05-19T04:17:06.488Z,42.17
2023-05-19T04:22:08.424Z,41.63
2023-05-19T04:27:12.258Z,41.50
2023-05-19T04:32:17.503Z,42.41
2023-05-19T04:37:20.411Z,41.71
2023-05-19T04:42:22.413Z,41.31
2023-05-19T04:47:27.956Z,41.07
2023-05-19T04:52:30.189Z,41.44
2023-05-19T04:57:32.296Z,45.45
2023-05-19T05:02:34.665Z,49.53
2023-05-19T05:07:36.891Z,49.55
2023-05-19T05:12:39.229Z,52.95
2023-05-19T05:17:41.434Z,53.35
2023-05-19T05:22:43.852Z,54.28
2023-05-19T05:27:47.027Z,52.47
2023-05-19T05:32:49.270Z,52.15
2023-05-19T05:38:05.153Z,50.11
2023-05-19T05:43:07.349Z,50.65
2023-05-19T05:48:14.677Z,48.22
2023-05-19T05:53:21.338Z,49.05
2023-05-19T05:58:26.439Z,47.06
2023-05-19T06:03:29.047Z,47.23
2023-05-19T06:08:37.283Z,46.72
2023-05-19T06:13:41.258Z,48.70
2023-05-19T06:18:46.112Z,56.04
2023-05-19T06:23:48.107Z,55.59
2023-05-19T06:28:50.110Z,60.82
2023-05-19T06:33:52.439Z,60.55
2023-05-19T06:38:55.505Z,61.93
2023-05-19T06:43:57.880Z,59.65
2023-05-19T06:48:59.751Z,58.79
2023-05-19T06:54:04.101Z,55.98
2023-05-19T06:59:06.173Z,59.01
2023-05-19T07:04:11.477Z,61.83
2023-05-19T07:09:13.955Z,58.45
2023-05-19T07:14:16.706Z,56.26
2023-05-19T07:19:22.457Z,52.85
2023-05-19T07:24:25.266Z,55.91
2023-05-19T07:29:27.222Z,58.08
2023-05-19T07:34:29.129Z,57.29
2023-05-19T07:39:32.371Z,51.09
2023-05-19T07:44:34.764Z,60.21
2023-05-19T07:49:36.667Z,60.78
2023-05-19T07:54:38.556Z,61.10
2023-05-19T07:59:40.473Z,59.58
2023-05-19T08:04:42.711Z,60.76
2023-05-19T08:09:44.581Z,61.87
2023-05-19T08:14:46.390Z,55.41
2023-05-19T08:19:48.183Z,53.09
2023-05-19T08:24:51.773Z,51.49
2023-05-19T08:29:55.279Z,60.85
2023-05-19T08:34:57.172Z,59.92
2023-05-19T08:39:59.131Z,58.41
2023-05-19T08:45:02.342Z,56.46
2023-05-19T08:50:10.894Z,54.13
2023-05-19T08:55:44.050Z,50.80
2023-05-19T09:00:47.199Z,54.01
2023-05-19T09:05:49.263Z,65.62
2023-05-19T09:10:51.180Z,58.83
2023-05-19T09:15:53.424Z,60.99
2023-05-19T09:21:00.331Z,57.08
2023-05-19T09:26:04.495Z,51.96
2023-05-19T09:31:08.444Z,53.38
2023-05-19T09:36:11.496Z,52.52
2023-05-19T09:41:15.069Z,54.42
2023-05-19T09:46:17.630Z,57.64
2023-05-19T09:51:21.393Z,56.71
2023-05-19T09:56:25.583Z,50.48
2023-05-19T10:01:27.888Z,48.02
2023-05-19T10:06:30.876Z,59.08
2023-05-19T10:11:32.752Z,55.98
2023-05-19T10:16:36.304Z,52.55
2023-05-19T10:21:38.290Z,53.54
2023-05-19T10:26:53.461Z,48.05
2023-05-19T10:31:59.391Z,48.20
2023-05-19T10:37:13.747Z,48.67
2023-05-19T10:42:53.805Z,52.72
2023-05-19T10:47:56.097Z,48.12
2023-05-19T10:53:00.155Z,49.38
2023-05-19T10:58:01.996Z,52.12
2023-05-19T11:03:18.555Z,52.09
2023-05-19T11:08:33.441Z,56.69
2023-05-19T11:13:36.671Z,51.65
2023-05-19T11:18:40.746Z,49.99
2023-05-19T11:23:43.385Z,45.84
2023-05-19T11:28:47.520Z,47.86
2023-05-19T11:33:49.444Z,52.04
2023-05-19T11:38:51.877Z,51.97
2023-05-19T11:43:53.790Z,52.63
2023-05-19T11:48:55.776Z,49.55
2023-05-19T11:53:57.696Z,51.86
2023-05-19T11:58:59.621Z,51.94
2023-05-19T12:04:02.557Z,50.02
2023-05-19T12:09:05.496Z,51.56
2023-05-19T12:14:08.297Z,48.19
2023-05-19T12:19:10.336Z,45.90
2023-05-19T12:24:12.429Z,49.18
2023-05-19T12:29:14.286Z,49.43
2023-05-19T12:34:16.121Z,48.16
2023-05-19T12:39:19.450Z,45.19
2023-05-19T12:44:21.501Z,46.52
2023-05-19T12:49:23.431Z,43.23
2023-05-19T12:54:26.158Z,41.46
2023-05-19T12:59:38.281Z,43.68
2023-05-19T13:04:41.399Z,45.43
2023-05-19T13:09:43.275Z,45.68
2023-05-19T13:14:45.265Z,42.08
2023-05-19T13:19:47.189Z,40.03
2023-05-19T13:24:50.519Z,42.42
2023-05-19T13:29:52.479Z,44.54
2023-05-19T13:34:54.444Z,40.91
2023-05-19T13:39:58.530Z,43.50
2023-05-19T13:45:00.711Z,43.89
2023-05-19T13:50:04.519Z,45.47
2023-05-19T13:55:07.441Z,46.07
2023-05-19T14:00:10.647Z,44.24
2023-05-19T14:05:15.394Z,46.09
2023-05-19T14:10:17.663Z,44.49
2023-05-19T14:15:22.706Z,43.75
2023-05-19T14:20:24.519Z,45.03
2023-05-19T14:25:26.831Z,45.88
2023-05-19T14:30:29.000Z,42.81
2023-05-19T14:35:30.932Z,42.16
2023-05-19T14:40:33.005Z,42.19
2023-05-19T14:45:35.450Z,42.71
2023-05-19T14:50:38.206Z,40.80
2023-05-19T14:55:40.115Z,39.33
2023-05-19T15:00:42.003Z,42.27
2023-05-19T15:05:43.887Z,41.85
2023-05-19T15:10:49.008Z,43.52
2023-05-19T15:16:08.436Z,42.93
2023-05-19T15:21:16.996Z,42.03
2023-05-19T15:26:18.942Z,39.77
2023-05-19T15:31:21.809Z,41.04
2023-05-19T15:36:24.036Z,39.45
2023-05-19T15:41:26.682Z,41.83
2023-05-19T15:46:29.313Z,41.39
2023-05-19T15:51:31.944Z,38.85
2023-05-19T15:56:33.992Z,39.42
2023-05-19T16:01:36.354Z,37.34
2023-05-19T16:06:38.236Z,37.18
2023-05-19T16:11:40.063Z,37.47
2023-05-19T16:16:42.223Z,37.46
2023-05-19T16:21:44.148Z,36.75
2023-05-19T16:26:46.349Z,36.17
2023-05-19T16:31:48.418Z,36.28
2023-05-19T16:36:50.368Z,36.29
2023-05-19T16:41:53.163Z,35.62
2023-05-19T16:46:55.008Z,38.68
2023-05-19T16:51:56.968Z,36.88
2023-05-19T16:56:58.842Z,36.18
2023-05-19T17:02:00.909Z,36.69
2023-05-19T17:07:02.865Z,36.56
2023-05-19T17:12:05.173Z,38.27
2023-05-19T17:17:07.075Z,36.50
2023-05-19T17:22:08.939Z,36.88
2023-05-19T17:27:10.827Z,36.89
2023-05-19T17:32:12.754Z,40.77
2023-05-19T17:37:17.483Z,37.64
2023-05-19T17:42:19.293Z,37.12
2023-05-19T17:47:21.467Z,39.89
2023-05-19T17:52:25.607Z,37.69
2023-05-19T17:57:31.343Z,38.35
2023-05-19T18:02:34.018Z,38.08
2023-05-19T18:07:39.601Z,37.02
2023-05-19T18:12:41.769Z,36.82
2023-05-19T18:17:43.709Z,36.47
2023-05-19T18:22:45.661Z,36.16
2023-05-19T18:27:47.556Z,36.40
2023-05-19T18:32:49.498Z,37.25
2023-05-19T18:37:55.298Z,37.25
2023-05-19T18:42:57.147Z,37.03
2023-05-19T18:47:59.088Z,37.85
2023-05-19T18:53:01.784Z,38.73
2023-05-19T18:58:03.784Z,39.06
2023-05-19T19:03:05.693Z,42.76
2023-05-19T19:08:07.598Z,42.53
2023-05-19T19:13:09.418Z,41.49
2023-05-19T19:18:11.970Z,41.51
2023-05-19T19:23:13.810Z,41.64
2023-05-19T19:28:15.916Z,41.34
2023-05-19T19:33:17.842Z,40.29
2023-05-19T19:38:19.844Z,46.82
2023-05-19T19:43:21.852Z,43.26
2023-05-19T19:48:23.774Z,44.10
2023-05-19T19:53:25.779Z,45.56
2023-05-19T19:58:28.804Z,43.18
2023-05-19T20:03:31.721Z,42.05
2023-05-19T20:08:33.693Z,43.64
2023-05-19T20:13:35.582Z,43.79
2023-05-19T20:18:37.575Z,47.14
2023-05-19T20:23:40.634Z,45.20
2023-05-19T20:28:42.630Z,45.40
2023-05-19T20:33:44.487Z,45.93
2023-05-19T20:38:47.906Z,44.15
2023-05-19T20:43:49.780Z,44.38
2023-05-19T20:48:51.680Z,43.31
2023-05-19T20:53:53.632Z,44.14
2023-05-19T20:58:55.523Z,42.44
2023-05-19T21:03:58.524Z,42.25
2023-05-19T21:09:03.685Z,43.36
2023-05-19T21:14:08.025Z,42.29
2023-05-19T21:19:09.924Z,46.38
2023-05-19T21:24:12.874Z,44.54
2023-05-19T21:29:14.668Z,45.73
2023-05-19T21:34:16.548Z,43.23
2023-05-19T21:39:18.436Z,42.41
2023-05-19T21:44:21.841Z,44.21
2023-05-19T21:49:23.682Z,43.91
2023-05-19T21:54:25.675Z,42.67
2023-05-19T21:59:27.571Z,42.19
2023-05-19T22:04:31.449Z,42.46
2023-05-19T22:09:33.310Z,41.37
2023-05-19T22:14:35.753Z,44.09
2023-05-19T22:19:37.611Z,43.63
2023-05-19T22:24:39.755Z,43.29
2023-05-19T22:29:41.637Z,44.40
2023-05-19T22:34:44.434Z,44.85
2023-05-19T22:39:46.363Z,43.02
2023-05-19T22:44:48.234Z,42.48
2023-05-19T22:49:50.858Z,44.16
2023-05-19T22:54:52.719Z,42.18
2023-05-19T22:59:54.591Z,42.81
2023-05-19T23:04:56.371Z,41.65
2023-05-19T23:09:58.178Z,40.86
2023-05-19T23:14:59.945Z,43.87
2023-05-19T23:20:02.107Z,42.02
2023-05-19T23:25:07.327Z,42.16
2023-05-19T23:30:09.466Z,41.86
2023-05-19T23:35:16.362Z,42.62
2023-05-19T23:40:18.190Z,42.50
2023-05-19T23:45:20.187Z,42.00
2023-05-19T23:50:22.221Z,43.59
2023-05-19T23:55:24.138Z,45.28
